Seafriend — 9HA3308 — position and weather

sailwx.info

Track history (hours):
 
Tides and Currents Weather Stations Pressure Air Temp Water Temp Dewpoint Dewpoint Depression Visibility Wind Speed Wind Dir Waves Ship Positions

Seafriend

Last reported at 2017-Dec-08 15:24 UTC. Time now 2017-Dec-17 02:39 UTC.
Position N 09°12' W 079°55'.
Warning: this ship's position is 8 days out of date.

Length 183 m; draft 10.6 m.

Type: Ship (hazmat cat A). MMSI: 229407000.

Date/timePositionNaut miles runAvg speedWind from/ knotsBaromVisibWave heightAir tempDewpointWater temp
2017-Dec-08 15:24N 09°12' W 079°55'3 8.9
2017-Dec-08 15:00N 09°16' W 079°55'1 1.2
2017-Dec-08 14:30N 09°16' W 079°55'0 0.5
2017-Dec-08 14:00N 09°17' W 079°55'0 0.6
2017-Dec-08 13:30N 09°17' W 079°55'0 0.0
2017-Dec-08 13:01N 09°17' W 079°55'1 1.1
2017-Dec-08 12:31N 09°17' W 079°55'2 3.7
2017-Dec-08 12:01N 09°19' W 079°55'2 4.4
2017-Dec-08 11:31N 09°21' W 079°55'2 3.4
2017-Dec-08 11:01N 09°23' W 079°55'3 6.3
2017-Dec-08 10:30N 09°26' W 079°55'2 3.0
2017-Dec-08 09:58N 09°27' W 079°57'0 0.0
2017-Dec-08 09:28N 09°27' W 079°57'0 0.0
2017-Dec-08 08:58N 09°27' W 079°57'0 0.0
2017-Dec-08 08:28N 09°27' W 079°57'0 0.0
2017-Dec-08 07:58N 09°27' W 079°57'0 0.0
2017-Dec-08 07:28N 09°27' W 079°57'0 0.0
2017-Dec-08 06:58N 09°27' W 079°57'0 0.1
2017-Dec-08 06:28N 09°27' W 079°57'0 0.0
2017-Dec-08 05:58N 09°27' W 079°57'0 0.0
2017-Dec-08 05:28N 09°27' W 079°57'0 0.0
2017-Dec-08 04:58N 09°27' W 079°57'0 0.0
2017-Dec-08 04:28N 09°27' W 079°57'0 0.0
2017-Dec-08 03:58N 09°27' W 079°57'0 0.0
2017-Dec-08 03:28N 09°27' W 079°57'0 0.0
2017-Dec-08 02:58N 09°27' W 079°57'0 0.0
2017-Dec-08 02:28N 09°27' W 079°57'0 0.0
2017-Dec-08 01:58N 09°27' W 079°57'0 0.0
2017-Dec-08 01:28N 09°27' W 079°57'0 0.0
2017-Dec-08 00:58N 09°27' W 079°57'0 0.0
2017-Dec-08 00:22N 09°27' W 079°57'0 0.0
2017-Dec-07 23:22N 09°27' W 079°57'0 0.0
2017-Dec-07 22:55N 09°27' W 079°57'0 0.0
2017-Dec-07 22:28N 09°27' W 079°57'0 0.1
2017-Dec-07 21:58N 09°27' W 079°57'0 0.9
2017-Dec-07 21:30N 09°27' W 079°57'3 6.3
2017-Dec-07 21:00N 09°29' W 079°54'5 9.5
2017-Dec-07 20:29N 09°34' W 079°52'3 6.8
2017-Dec-07 20:00N 09°37' W 079°52'  
2017-Dec-02 11:38N 26°59' W 096°11'213.1
2017-Dec-02 11:28N 27°01' W 096°11'3311.0
2017-Dec-02 08:30N 27°30' W 096°27'713.0
2017-Dec-02 08:00N 27°34' W 096°34'613.1
2017-Dec-02 07:30N 27°37' W 096°40'712.8
2017-Dec-02 06:59N 27°40' W 096°47'612.5
2017-Dec-02 06:30N 27°44' W 096°52'4 7.1
2017-Dec-02 06:00N 27°47' W 096°53'0 0.4
2017-Dec-02 05:29N 27°47' W 096°53'0 0.0
2017-Dec-02 04:59N 27°47' W 096°53'0 0.0
2017-Dec-02 04:29N 27°47' W 096°53'0 0.0
2017-Dec-02 03:59N 27°47' W 096°53'0 0.0
2017-Dec-02 03:29N 27°47' W 096°53'0 0.0
2017-Dec-02 02:59N 27°47' W 096°53'0 0.0
2017-Dec-02 02:29N 27°47' W 096°53'0 0.0
2017-Dec-02 01:59N 27°47' W 096°53'0 0.0
2017-Dec-02 01:29N 27°47' W 096°53'0 0.0
2017-Dec-02 00:53N 27°47' W 096°53'0 0.0
2017-Dec-02 00:29N 27°47' W 096°53'0 0.0
2017-Dec-01 23:56N 27°47' W 096°53'0 0.0
2017-Dec-01 23:29N 27°47' W 096°53'0 0.0
2017-Dec-01 22:59N 27°47' W 096°53'0 0.0
2017-Dec-01 22:29N 27°47' W 096°53'0 0.0
2017-Dec-01 21:59N 27°47' W 096°53'0 0.0
2017-Dec-01 21:29N 27°47' W 096°53'0 0.1
2017-Dec-01 20:59N 27°47' W 096°53'1 2.6
2017-Dec-01 20:30N 27°46' W 096°55'4 8.5
2017-Dec-01 19:59N 27°48' W 096°59'5 9.5
2017-Dec-01 19:29N 27°51' W 097°04'510.0
2017-Dec-01 18:59N 27°50' W 097°09'511.2
2017-Dec-01 18:30N 27°49' W 097°15'611.9
2017-Dec-01 17:59N 27°49' W 097°22'3 5.2
2017-Dec-01 17:30N 27°49' W 097°25'0 0.5
2017-Dec-01 17:00N 27°49' W 097°25'0 0.0
2017-Dec-01 16:30N 27°49' W 097°25'0 0.0
2017-Dec-01 15:42N 27°49' W 097°25'0 0.0
2017-Dec-01 15:27N 27°49' W 097°25'0 0.0
2017-Dec-01 14:33N 27°49' W 097°25'0 0.1
2017-Dec-01 14:30N 27°49' W 097°25'0 0.0
2017-Dec-01 14:00N 27°49' W 097°25'0 0.0
2017-Dec-01 13:18N 27°49' W 097°25'0 0.0
2017-Dec-01 13:00N 27°49' W 097°25'0 0.0
2017-Dec-01 12:30N 27°49' W 097°25'0 0.0
2017-Dec-01 12:00N 27°49' W 097°25'0 0.0
2017-Dec-01 11:24N 27°49' W 097°25'0 0.0
2017-Dec-01 11:00N 27°49' W 097°25'0 0.0
2017-Dec-01 10:30N 27°49' W 097°25'0 0.0
2017-Dec-01 10:00N 27°49' W 097°25'0 0.0
2017-Dec-01 09:30N 27°49' W 097°25'0 0.0
2017-Dec-01 08:54N 27°49' W 097°25'0 0.0
2017-Dec-01 06:39N 27°49' W 097°25'0 0.0
2017-Nov-30 22:24N 27°49' W 097°25'0 0.0
2017-Nov-30 22:00N 27°49' W 097°25'0 0.0
2017-Nov-30 21:30N 27°49' W 097°25'0 0.0
2017-Nov-30 20:57N 27°49' W 097°25'0 0.0
2017-Nov-30 20:30N 27°49' W 097°25'0 0.0
2017-Nov-30 19:54N 27°49' W 097°25'0 0.0
2017-Nov-30 19:24N 27°49' W 097°25'0 0.0
2017-Nov-30 17:27N 27°49' W 097°25'0 0.0
2017-Nov-30 16:45N 27°49' W 097°25'0 0.0
2017-Nov-30 16:30N 27°49' W 097°25'0 0.0
2017-Nov-30 16:00N 27°49' W 097°25'0 0.0
2017-Nov-30 15:24N 27°49' W 097°25'0 0.0
2017-Nov-30 15:00N 27°49' W 097°25'0 0.0
2017-Nov-30 14:09N 27°49' W 097°25'0 0.0
2017-Nov-30 14:00N 27°49' W 097°25'0 0.0
2017-Nov-30 13:27N 27°49' W 097°25'0 0.0
2017-Nov-30 13:00N 27°49' W 097°25'0 0.0
2017-Nov-30 12:27N 27°49' W 097°25'0 0.0
2017-Nov-30 11:00N 27°49' W 097°25'0 0.0
2017-Nov-30 10:09N 27°49' W 097°25'0 0.0
2017-Nov-30 10:00N 27°49' W 097°25'0 0.0
2017-Nov-30 09:30N 27°49' W 097°25'0 0.0
2017-Nov-30 09:00N 27°49' W 097°25'0 0.0
2017-Nov-30 08:30N 27°49' W 097°25'0 0.0
2017-Nov-30 08:00N 27°49' W 097°25'0 0.0
2017-Nov-30 07:30N 27°49' W 097°25'0 0.0
2017-Nov-30 07:00N 27°49' W 097°25'0 0.0
2017-Nov-30 06:30N 27°49' W 097°25'0 0.0
2017-Nov-30 05:54N 27°49' W 097°25'0 0.0
2017-Nov-30 05:30N 27°49' W 097°25'0 0.0
2017-Nov-30 05:00N 27°49' W 097°25'0 0.0
2017-Nov-30 04:27N 27°49' W 097°25'0 0.0
2017-Nov-30 04:00N 27°49' W 097°25'0 0.0
2017-Nov-30 03:30N 27°49' W 097°25'0 0.0
2017-Nov-30 03:00N 27°49' W 097°25'0 0.0
2017-Nov-30 00:54N 27°49' W 097°25'0 0.0
2017-Nov-30 00:27N 27°49' W 097°25'0 0.0
2017-Nov-30 00:00N 27°49' W 097°25'0 0.0
2017-Nov-29 23:30N 27°49' W 097°25'0 0.0
2017-Nov-29 23:00N 27°49' W 097°25'0 0.0
2017-Nov-29 22:27N 27°49' W 097°25'0 0.0
2017-Nov-29 22:00N 27°49' W 097°25'0 0.0
2017-Nov-29 21:30N 27°49' W 097°25'0 0.0
2017-Nov-29 21:00N 27°49' W 097°25'0 0.1
2017-Nov-29 20:28N 27°49' W 097°25'1 2.6
2017-Nov-29 19:55N 27°49' W 097°24'4 9.2
2017-Nov-29 19:30N 27°49' W 097°20'5 9.4
2017-Nov-29 18:59N 27°49' W 097°14'5 9.2
2017-Nov-29 18:29N 27°50' W 097°09'5 9.4
2017-Nov-29 17:59N 27°51' W 097°04'611.3
2017-Nov-29 17:29N 27°48' W 096°58'3 6.0
2017-Nov-29 17:00N 27°47' W 096°55'3 5.1
2017-Nov-29 16:30N 27°46' W 096°52'0 0.0
2017-Nov-29 16:00N 27°46' W 096°52'0 0.0
2017-Nov-29 15:30N 27°46' W 096°52'0 0.0
2017-Nov-29 15:00N 27°46' W 096°52'0 0.0
2017-Nov-29 14:30N 27°46' W 096°52'0 0.0
2017-Nov-29 14:00N 27°46' W 096°52'0 0.0
2017-Nov-29 13:30N 27°46' W 096°52'0 0.0
2017-Nov-29 13:00N 27°46' W 096°52'0 0.0
2017-Nov-29 12:30N 27°46' W 096°52'0 0.0
2017-Nov-29 12:00N 27°46' W 096°52'0 0.6
2017-Nov-29 11:29N 27°46' W 096°52'3 5.5
2017-Nov-29 11:00N 27°45' W 096°49'510.1
2017-Nov-29 10:30N 27°42' W 096°44'612.7
2017-Nov-29 10:00N 27°39' W 096°38'612.6
2017-Nov-29 09:29N 27°36' W 096°32'612.7
2017-Nov-29 09:00N 27°33' W 096°26'  
Track history (hours):
 
Tides and Currents Weather Stations Pressure Air Temp Water Temp Dewpoint Dewpoint Depression Visibility Wind Speed Wind Dir Waves Ship Positions

Seafriend

Last reported at 2017-Dec-08 15:24 UTC. Time now 2017-Dec-17 02:39 UTC.
Position N 09°12' W 079°55'.
Warning: this ship's position is 8 days out of date.

Length 183 m; draft 10.6 m.

Type: Ship (hazmat cat A). MMSI: 229407000.

Date/timePositionNaut miles runAvg speedWind from/ knotsBaromVisibWave heightAir tempDewpointWater temp
2017-Dec-08 15:24N 09°12' W 079°55'3 8.9
2017-Dec-08 15:00N 09°16' W 079°55'1 1.2
2017-Dec-08 14:30N 09°16' W 079°55'0 0.5
2017-Dec-08 14:00N 09°17' W 079°55'0 0.6
2017-Dec-08 13:30N 09°17' W 079°55'0 0.0
2017-Dec-08 13:01N 09°17' W 079°55'1 1.1
2017-Dec-08 12:31N 09°17' W 079°55'2 3.7
2017-Dec-08 12:01N 09°19' W 079°55'2 4.4
2017-Dec-08 11:31N 09°21' W 079°55'2 3.4
2017-Dec-08 11:01N 09°23' W 079°55'3 6.3
2017-Dec-08 10:30N 09°26' W 079°55'2 3.0
2017-Dec-08 09:58N 09°27' W 079°57'0 0.0
2017-Dec-08 09:28N 09°27' W 079°57'0 0.0
2017-Dec-08 08:58N 09°27' W 079°57'0 0.0
2017-Dec-08 08:28N 09°27' W 079°57'0 0.0
2017-Dec-08 07:58N 09°27' W 079°57'0 0.0
2017-Dec-08 07:28N 09°27' W 079°57'0 0.0
2017-Dec-08 06:58N 09°27' W 079°57'0 0.1
2017-Dec-08 06:28N 09°27' W 079°57'0 0.0
2017-Dec-08 05:58N 09°27' W 079°57'0 0.0
2017-Dec-08 05:28N 09°27' W 079°57'0 0.0
2017-Dec-08 04:58N 09°27' W 079°57'0 0.0
2017-Dec-08 04:28N 09°27' W 079°57'0 0.0
2017-Dec-08 03:58N 09°27' W 079°57'0 0.0
2017-Dec-08 03:28N 09°27' W 079°57'0 0.0
2017-Dec-08 02:58N 09°27' W 079°57'0 0.0
2017-Dec-08 02:28N 09°27' W 079°57'0 0.0
2017-Dec-08 01:58N 09°27' W 079°57'0 0.0
2017-Dec-08 01:28N 09°27' W 079°57'0 0.0
2017-Dec-08 00:58N 09°27' W 079°57'0 0.0
2017-Dec-08 00:22N 09°27' W 079°57'0 0.0
2017-Dec-07 23:22N 09°27' W 079°57'0 0.0
2017-Dec-07 22:55N 09°27' W 079°57'0 0.0
2017-Dec-07 22:28N 09°27' W 079°57'0 0.1
2017-Dec-07 21:58N 09°27' W 079°57'0 0.9
2017-Dec-07 21:30N 09°27' W 079°57'3 6.3
2017-Dec-07 21:00N 09°29' W 079°54'5 9.5
2017-Dec-07 20:29N 09°34' W 079°52'3 6.8
2017-Dec-07 20:00N 09°37' W 079°52'  
2017-Dec-02 11:38N 26°59' W 096°11'213.1
2017-Dec-02 11:28N 27°01' W 096°11'3311.0
2017-Dec-02 08:30N 27°30' W 096°27'713.0
2017-Dec-02 08:00N 27°34' W 096°34'613.1
2017-Dec-02 07:30N 27°37' W 096°40'712.8
2017-Dec-02 06:59N 27°40' W 096°47'612.5
2017-Dec-02 06:30N 27°44' W 096°52'4 7.1
2017-Dec-02 06:00N 27°47' W 096°53'0 0.4
2017-Dec-02 05:29N 27°47' W 096°53'0 0.0
2017-Dec-02 04:59N 27°47' W 096°53'0 0.0
2017-Dec-02 04:29N 27°47' W 096°53'0 0.0
2017-Dec-02 03:59N 27°47' W 096°53'0 0.0
2017-Dec-02 03:29N 27°47' W 096°53'0 0.0
2017-Dec-02 02:59N 27°47' W 096°53'0 0.0
2017-Dec-02 02:29N 27°47' W 096°53'0 0.0
2017-Dec-02 01:59N 27°47' W 096°53'0 0.0
2017-Dec-02 01:29N 27°47' W 096°53'0 0.0
2017-Dec-02 00:53N 27°47' W 096°53'0 0.0
2017-Dec-02 00:29N 27°47' W 096°53'0 0.0
2017-Dec-01 23:56N 27°47' W 096°53'0 0.0
2017-Dec-01 23:29N 27°47' W 096°53'0 0.0
2017-Dec-01 22:59N 27°47' W 096°53'0 0.0
2017-Dec-01 22:29N 27°47' W 096°53'0 0.0
2017-Dec-01 21:59N 27°47' W 096°53'0 0.0
2017-Dec-01 21:29N 27°47' W 096°53'0 0.1
2017-Dec-01 20:59N 27°47' W 096°53'1 2.6
2017-Dec-01 20:30N 27°46' W 096°55'4 8.5
2017-Dec-01 19:59N 27°48' W 096°59'5 9.5
2017-Dec-01 19:29N 27°51' W 097°04'510.0
2017-Dec-01 18:59N 27°50' W 097°09'511.2
2017-Dec-01 18:30N 27°49' W 097°15'611.9
2017-Dec-01 17:59N 27°49' W 097°22'3 5.2
2017-Dec-01 17:30N 27°49' W 097°25'0 0.5
2017-Dec-01 17:00N 27°49' W 097°25'0 0.0
2017-Dec-01 16:30N 27°49' W 097°25'0 0.0
2017-Dec-01 15:42N 27°49' W 097°25'0 0.0
2017-Dec-01 15:27N 27°49' W 097°25'0 0.0
2017-Dec-01 14:33N 27°49' W 097°25'0 0.1
2017-Dec-01 14:30N 27°49' W 097°25'0 0.0
2017-Dec-01 14:00N 27°49' W 097°25'0 0.0
2017-Dec-01 13:18N 27°49' W 097°25'0 0.0
2017-Dec-01 13:00N 27°49' W 097°25'0 0.0
2017-Dec-01 12:30N 27°49' W 097°25'0 0.0
2017-Dec-01 12:00N 27°49' W 097°25'0 0.0
2017-Dec-01 11:24N 27°49' W 097°25'0 0.0
2017-Dec-01 11:00N 27°49' W 097°25'0 0.0
2017-Dec-01 10:30N 27°49' W 097°25'0 0.0
2017-Dec-01 10:00N 27°49' W 097°25'0 0.0
2017-Dec-01 09:30N 27°49' W 097°25'0 0.0
2017-Dec-01 08:54N 27°49' W 097°25'0 0.0
2017-Dec-01 06:39N 27°49' W 097°25'0 0.0
2017-Nov-30 22:24N 27°49' W 097°25'0 0.0
2017-Nov-30 22:00N 27°49' W 097°25'0 0.0
2017-Nov-30 21:30N 27°49' W 097°25'0 0.0
2017-Nov-30 20:57N 27°49' W 097°25'0 0.0
2017-Nov-30 20:30N 27°49' W 097°25'0 0.0
2017-Nov-30 19:54N 27°49' W 097°25'0 0.0
2017-Nov-30 19:24N 27°49' W 097°25'0 0.0
2017-Nov-30 17:27N 27°49' W 097°25'0 0.0
2017-Nov-30 16:45N 27°49' W 097°25'0 0.0
2017-Nov-30 16:30N 27°49' W 097°25'0 0.0
2017-Nov-30 16:00N 27°49' W 097°25'0 0.0
2017-Nov-30 15:24N 27°49' W 097°25'0 0.0
2017-Nov-30 15:00N 27°49' W 097°25'0 0.0
2017-Nov-30 14:09N 27°49' W 097°25'0 0.0
2017-Nov-30 14:00N 27°49' W 097°25'0 0.0
2017-Nov-30 13:27N 27°49' W 097°25'0 0.0
2017-Nov-30 13:00N 27°49' W 097°25'0 0.0
2017-Nov-30 12:27N 27°49' W 097°25'0 0.0
2017-Nov-30 11:00N 27°49' W 097°25'0 0.0
2017-Nov-30 10:09N 27°49' W 097°25'0 0.0
2017-Nov-30 10:00N 27°49' W 097°25'0 0.0
2017-Nov-30 09:30N 27°49' W 097°25'0 0.0
2017-Nov-30 09:00N 27°49' W 097°25'0 0.0
2017-Nov-30 08:30N 27°49' W 097°25'0 0.0
2017-Nov-30 08:00N 27°49' W 097°25'0 0.0
2017-Nov-30 07:30N 27°49' W 097°25'0 0.0
2017-Nov-30 07:00N 27°49' W 097°25'0 0.0
2017-Nov-30 06:30N 27°49' W 097°25'0 0.0
2017-Nov-30 05:54N 27°49' W 097°25'0 0.0
2017-Nov-30 05:30N 27°49' W 097°25'0 0.0
2017-Nov-30 05:00N 27°49' W 097°25'0 0.0
2017-Nov-30 04:27N 27°49' W 097°25'0 0.0
2017-Nov-30 04:00N 27°49' W 097°25'0 0.0
2017-Nov-30 03:30N 27°49' W 097°25'0 0.0
2017-Nov-30 03:00N 27°49' W 097°25'0 0.0
2017-Nov-30 00:54N 27°49' W 097°25'0 0.0
2017-Nov-30 00:27N 27°49' W 097°25'0 0.0
2017-Nov-30 00:00N 27°49' W 097°25'0 0.0
2017-Nov-29 23:30N 27°49' W 097°25'0 0.0
2017-Nov-29 23:00N 27°49' W 097°25'0 0.0
2017-Nov-29 22:27N 27°49' W 097°25'0 0.0
2017-Nov-29 22:00N 27°49' W 097°25'0 0.0
2017-Nov-29 21:30N 27°49' W 097°25'0 0.0
2017-Nov-29 21:00N 27°49' W 097°25'0 0.1
2017-Nov-29 20:28N 27°49' W 097°25'1 2.6
2017-Nov-29 19:55N 27°49' W 097°24'4 9.2
2017-Nov-29 19:30N 27°49' W 097°20'5 9.4
2017-Nov-29 18:59N 27°49' W 097°14'5 9.2
2017-Nov-29 18:29N 27°50' W 097°09'5 9.4
2017-Nov-29 17:59N 27°51' W 097°04'611.3
2017-Nov-29 17:29N 27°48' W 096°58'3 6.0
2017-Nov-29 17:00N 27°47' W 096°55'3 5.1
2017-Nov-29 16:30N 27°46' W 096°52'0 0.0
2017-Nov-29 16:00N 27°46' W 096°52'0 0.0
2017-Nov-29 15:30N 27°46' W 096°52'0 0.0
2017-Nov-29 15:00N 27°46' W 096°52'0 0.0
2017-Nov-29 14:30N 27°46' W 096°52'0 0.0
2017-Nov-29 14:00N 27°46' W 096°52'0 0.0
2017-Nov-29 13:30N 27°46' W 096°52'0 0.0
2017-Nov-29 13:00N 27°46' W 096°52'0 0.0
2017-Nov-29 12:30N 27°46' W 096°52'0 0.0
2017-Nov-29 12:00N 27°46' W 096°52'0 0.6
2017-Nov-29 11:29N 27°46' W 096°52'3 5.5
2017-Nov-29 11:00N 27°45' W 096°49'510.1
2017-Nov-29 10:30N 27°42' W 096°44'612.7
2017-Nov-29 10:00N 27°39' W 096°38'612.6
2017-Nov-29 09:29N 27°36' W 096°32'612.7
2017-Nov-29 09:00N 27°33' W 096°26'  

Dump ship's entire track history